Terminal Aerodrome Forecast
Issued by NWS Cleveland, OH

Home | Current Version | Previous Version | Graphics & Text | Print | Product List | Glossary On
Versions: 1 2 3 4 5 6 7 8 9 10 11 12 13 14
489
FTUS41 KCLE 192334
TAFERI
TAF
KERI 192334Z 2000/2024 29010KT P6SM SCT050
      TEMPO 2000/2002 BKN050
     FM200300 28004KT P6SM SCT250
     FM200500 22005KT P6SM SKC
     FM201800 28008KT P6SM FEW250=

USA.gov is the U.S. government's official web portal to all federal, state and local government web resources and services.